Time;durP1;ratioP1;P1;durP2;ratioP2;P2;SDS_P1;SDS_P2;PMS_P1;PMS_P2;Temp;Humidity;BMP_temperature;BMP_pressure;BME280_temperature;BME280_humidity;BME280_pressure;Samples;Min_cycle;Max_cycle;Signal;HPM_P1;HPM_P2
2022/05/01 00:01:31;;;;;;;4.10;1.90;;;20.10;53.70;;;;;;4992447;28;20042;-57
2022/05/01 00:03:56;;;;;;;3.53;1.90;;;20.10;53.60;;;;;;4992962;28;20058;-56
2022/05/01 00:06:22;;;;;;;3.95;2.28;;;20.00;53.60;;;;;;4993114;28;20105;-56
2022/05/01 00:08:47;;;;;;;3.33;1.98;;;20.10;53.60;;;;;;4991839;28;20072;-56
2022/05/01 00:11:13;;;;;;;3.47;1.98;;;20.10;53.60;;;;;;4993022;28;20050;-56
2022/05/01 00:13:39;;;;;;;4.60;2.25;;;20.00;53.50;;;;;;4992990;28;20057;-56
2022/05/01 00:16:05;;;;;;;3.13;1.73;;;20.00;53.50;;;;;;4992043;28;20054;-56
2022/05/01 00:18:30;;;;;;;2.92;1.90;;;20.00;53.50;;;;;;4993164;28;20042;-56
2022/05/01 00:20:56;;;;;;;4.82;1.88;;;20.00;53.50;;;;;;4992617;28;20050;-56
2022/05/01 00:23:21;;;;;;;3.75;2.15;;;20.00;53.50;;;;;;4992461;28;20038;-56
2022/05/01 00:25:47;;;;;;;3.63;2.15;;;20.00;53.50;;;;;;4992461;28;20050;-56
2022/05/01 00:28:13;;;;;;;4.15;2.22;;;20.00;53.50;;;;;;4990996;28;20042;-56
2022/05/01 00:30:39;;;;;;;3.22;1.83;;;20.00;53.50;;;;;;4992429;28;20046;-56
2022/05/01 00:38:33;;;;;;;3.90;2.00;;;20.00;53.50;;;;;;4996875;28;20082;-56
2022/05/01 00:40:59;;;;;;;4.85;1.95;;;20.00;53.50;;;;;;4996454;28;20046;-56
2022/05/01 00:43:25;;;;;;;2.67;1.80;;;20.00;53.50;;;;;;4995858;28;20039;-57
2022/05/01 00:45:50;;;;;;;2.17;1.70;;;19.90;53.40;;;;;;4995186;28;20050;-56
2022/05/01 00:48:16;;;;;;;3.35;1.92;;;19.90;53.40;;;;;;4996605;28;20046;-56
2022/05/01 00:50:43;;;;;;;3.92;1.95;;;19.90;53.40;;;;;;4995089;28;20073;-56
2022/05/01 00:53:08;;;;;;;2.75;1.70;;;19.90;53.40;;;;;;4996335;28;20070;-56
2022/05/01 00:55:35;;;;;;;3.35;1.90;;;19.90;53.40;;;;;;4996433;28;20165;-56
2022/05/01 00:58:01;;;;;;;3.58;1.98;;;19.90;53.30;;;;;;4994539;28;20134;-56
2022/05/01 01:00:26;;;;;;;5.07;2.20;;;19.90;53.30;;;;;;4994657;28;20470;-56
2022/05/01 01:02:52;;;;;;;3.55;1.95;;;19.90;53.30;;;;;;4996124;28;20089;-56
2022/05/01 01:05:17;;;;;;;2.83;1.90;;;19.90;53.30;;;;;;4994403;28;20491;-56
2022/05/01 01:07:43;;;;;;;3.72;2.10;;;19.90;53.30;;;;;;4994647;28;20137;-56
2022/05/01 01:10:09;;;;;;;3.67;2.22;;;19.90;53.30;;;;;;4996250;28;20061;-56
2022/05/01 01:15:20;;;;;;;3.78;2.10;;;19.90;53.30;;;;;;4995945;28;20402;-56
2022/05/01 01:17:46;;;;;;;3.25;1.92;;;19.80;53.20;;;;;;4994757;28;20104;-56
2022/05/01 01:20:13;;;;;;;4.95;1.95;;;19.90;53.30;;;;;;4995876;28;20046;-57
2022/05/01 01:22:39;;;;;;;2.58;1.90;;;19.80;53.20;;;;;;4995678;28;20120;-56
2022/05/01 01:25:06;;;;;;;2.78;1.70;;;19.80;53.10;;;;;;4993612;28;20042;-56
2022/05/01 01:27:31;;;;;;;2.88;1.90;;;19.80;53.10;;;;;;4994628;28;20074;-56
2022/05/01 01:32:41;;;;;;;3.60;1.95;;;19.80;53.20;;;;;;4993813;28;20060;-56
2022/05/01 01:35:06;;;;;;;3.10;2.00;;;19.80;53.20;;;;;;4995441;28;20133;-56
2022/05/01 01:37:33;;;;;;;3.45;1.95;;;19.80;53.30;;;;;;4995392;28;20051;-56
2022/05/01 01:39:58;;;;;;;6.05;2.85;;;19.90;53.30;;;;;;4993137;28;20539;-57
2022/05/01 01:42:24;;;;;;;3.90;2.08;;;19.90;53.30;;;;;;4995468;28;20042;-57
2022/05/01 01:44:49;;;;;;;4.07;2.38;;;19.90;53.40;;;;;;4994088;28;20042;-56
2022/05/01 01:47:15;;;;;;;3.45;1.90;;;19.90;53.40;;;;;;4976907;28;20085;-57
2022/05/01 01:49:40;;;;;;;3.47;1.95;;;19.90;53.40;;;;;;4993513;28;20047;-56
2022/05/01 01:52:06;;;;;;;2.97;1.95;;;19.90;53.40;;;;;;4995351;28;20057;-56
2022/05/01 01:54:31;;;;;;;2.72;1.90;;;19.90;53.30;;;;;;4994666;28;20050;-56
2022/05/01 01:56:59;;;;;;;2.67;1.80;;;19.90;53.40;;;;;;4994927;28;20513;-56
2022/05/01 01:59:24;;;;;;;3.03;2.03;;;19.90;53.40;;;;;;4994913;28;20520;-57
2022/05/01 02:01:50;;;;;;;3.05;1.90;;;19.90;53.40;;;;;;4993686;28;20046;-56
2022/05/01 02:04:15;;;;;;;2.70;1.95;;;19.90;53.40;;;;;;4994091;28;20057;-56
2022/05/01 02:06:43;;;;;;;2.20;1.63;;;19.90;53.30;;;;;;4993757;28;20053;-57
2022/05/01 02:09:08;;;;;;;2.97;1.90;;;19.90;53.40;;;;;;4994844;28;20050;-56
2022/05/01 02:11:35;;;;;;;3.53;1.80;;;20.00;53.50;;;;;;4995042;28;20402;-56
2022/05/01 02:14:01;;;;;;;3.03;1.55;;;20.00;53.40;;;;;;4993826;28;20043;-56
2022/05/01 02:16:26;;;;;;;3.15;1.85;;;20.00;53.30;;;;;;4994885;28;20039;-55
2022/05/01 02:18:52;;;;;;;2.42;1.80;;;20.00;53.30;;;;;;4994682;28;20367;-56
2022/05/01 02:21:36;;;;;;;3.13;1.80;;;20.00;53.20;;;;;;4994084;28;20093;-56
2022/05/01 02:24:10;;;;;;;2.92;1.85;;;20.00;53.20;;;;;;4994568;28;20050;-56
2022/05/01 02:26:36;;;;;;;3.80;1.80;;;20.00;53.20;;;;;;4994793;28;20097;-56
2022/05/01 02:29:02;;;;;;;2.97;1.83;;;20.00;53.20;;;;;;4993860;28;20047;-57
2022/05/01 02:31:28;;;;;;;2.72;1.52;;;20.00;53.20;;;;;;4994365;28;20403;-56
2022/05/01 02:33:54;;;;;;;3.60;1.80;;;20.10;53.20;;;;;;4993890;28;20054;-56
2022/05/01 02:36:19;;;;;;;2.45;1.80;;;20.10;53.20;;;;;;4993743;28;20096;-56
2022/05/01 02:38:46;;;;;;;3.03;1.70;;;20.10;53.20;;;;;;4994400;28;20124;-56
2022/05/01 02:41:12;;;;;;;2.78;1.88;;;20.10;53.20;;;;;;4994645;28;20100;-56
2022/05/01 02:43:38;;;;;;;3.13;1.88;;;20.10;53.20;;;;;;4992553;28;20049;-56
2022/05/01 02:46:04;;;;;;;3.60;1.92;;;20.10;53.20;;;;;;4994119;28;20375;-56
2022/05/01 02:48:29;;;;;;;3.10;1.90;;;20.10;53.10;;;;;;4994223;28;20125;-56
2022/05/01 02:50:55;;;;;;;3.05;2.05;;;20.10;53.10;;;;;;4993294;28;20486;-56
2022/05/01 02:53:20;;;;;;;2.70;1.80;;;20.20;53.20;;;;;;4994172;28;20491;-57
2022/05/01 02:55:46;;;;;;;2.47;1.80;;;20.20;53.90;;;;;;4992894;28;20053;-57
2022/05/01 02:58:11;;;;;;;4.50;2.13;;;20.20;53.10;;;;;;4993545;28;20043;-56
2022/05/01 03:00:37;;;;;;;2.75;1.75;;;20.20;53.10;;;;;;4993651;28;20398;-56
2022/05/01 03:03:03;;;;;;;2.75;1.83;;;20.20;53.10;;;;;;4993194;28;20082;-56
2022/05/01 03:05:28;;;;;;;2.15;1.60;;;20.20;53.10;;;;;;4994064;28;20050;-56
2022/05/01 03:07:55;;;;;;;2.67;2.00;;;20.20;53.10;;;;;;4993614;28;20045;-56
2022/05/01 03:10:22;;;;;;;2.47;1.63;;;20.20;53.20;;;;;;4993345;28;20046;-57
2022/05/01 03:12:47;;;;;;;2.33;1.77;;;20.20;53.10;;;;;;4993445;28;20039;-57
2022/05/01 03:15:13;;;;;;;3.10;1.73;;;20.20;53.10;;;;;;4993841;28;20375;-57
2022/05/01 03:23:07;;;;;;;3.13;1.67;;;20.20;53.10;;;;;;4993847;28;20094;-56
2022/05/01 03:25:32;;;;;;;2.50;1.80;;;20.20;53.00;;;;;;4993026;28;20454;-56
2022/05/01 03:27:58;;;;;;;2.75;1.85;;;20.20;53.00;;;;;;4993128;28;20046;-56
2022/05/01 03:30:24;;;;;;;2.35;1.70;;;20.30;53.10;;;;;;4993671;28;20482;-56
2022/05/01 03:32:50;;;;;;;2.20;1.55;;;20.20;53.00;;;;;;4992414;28;20053;-56
2022/05/01 03:35:17;;;;;;;2.75;1.90;;;20.30;53.10;;;;;;4993438;28;20446;-56
2022/05/01 03:37:42;;;;;;;3.25;2.00;;;20.30;53.10;;;;;;4993222;28;20042;-56
2022/05/01 03:40:09;;;;;;;2.33;1.55;;;20.30;53.10;;;;;;4992619;28;20045;-56
2022/05/01 03:42:35;;;;;;;2.00;1.75;;;20.30;53.10;;;;;;4993268;28;20133;-56
2022/05/01 03:45:00;;;;;;;3.30;1.60;;;20.30;53.10;;;;;;4992122;28;20046;-56
2022/05/01 03:47:26;;;;;;;4.15;1.77;;;20.30;53.10;;;;;;4993501;28;20057;-56
2022/05/01 03:49:51;;;;;;;2.75;1.73;;;20.30;53.00;;;;;;4993181;28;20046;-56
2022/05/01 03:52:17;;;;;;;2.22;1.77;;;20.30;53.00;;;;;;4992688;28;20421;-57
2022/05/01 03:54:42;;;;;;;2.88;1.85;;;20.30;53.00;;;;;;4992787;28;20042;-56
2022/05/01 03:57:09;;;;;;;3.42;1.70;;;20.30;53.00;;;;;;4993226;28;20046;-56
2022/05/01 03:59:34;;;;;;;3.00;1.88;;;20.30;53.00;;;;;;4992671;28;20057;-57
2022/05/01 04:02:00;;;;;;;2.88;1.70;;;20.30;53.00;;;;;;4992892;28;20035;-56
2022/05/01 04:04:26;;;;;;;2.60;1.98;;;20.30;53.00;;;;;;4992904;28;20050;-56
2022/05/01 04:06:51;;;;;;;2.40;1.92;;;20.40;53.00;;;;;;4991492;28;20038;-56
2022/05/01 04:09:16;;;;;;;1.85;1.55;;;20.40;53.00;;;;;;4993671;28;20452;-56
2022/05/01 04:11:42;;;;;;;2.78;1.90;;;20.40;53.10;;;;;;4996931;28;20042;-56
2022/05/01 04:14:07;;;;;;;1.90;1.33;;;20.30;53.00;;;;;;4996462;28;20047;-56
2022/05/01 04:16:33;;;;;;;2.42;1.58;;;20.40;53.00;;;;;;4997285;28;20458;-56
2022/05/01 04:18:58;;;;;;;2.38;1.88;;;20.40;53.00;;;;;;4996494;28;20068;-56
2022/05/01 04:21:24;;;;;;;2.33;1.75;;;20.40;53.00;;;;;;4996105;28;20502;-57
2022/05/01 04:23:50;;;;;;;2.88;1.80;;;20.40;53.00;;;;;;4996555;28;20133;-56
2022/05/01 04:26:15;;;;;;;3.17;1.73;;;20.40;53.00;;;;;;4996976;28;20046;-56
2022/05/01 04:29:36;;;;;;;2.85;1.85;;;20.40;53.00;;;;;;4995750;28;20074;-56
2022/05/01 04:31:27;;;;;;;2.53;1.80;;;20.40;53.00;;;;;;4996771;28;20133;-56
2022/05/01 04:33:53;;;;;;;2.15;1.65;;;20.40;53.00;;;;;;4996135;28;20046;-56
2022/05/01 04:36:19;;;;;;;3.45;1.60;;;20.40;53.00;;;;;;4996035;28;20050;-57
2022/05/01 04:38:44;;;;;;;2.67;1.70;;;20.40;53.00;;;;;;4996224;28;20049;-57
2022/05/01 04:41:10;;;;;;;1.98;1.73;;;20.40;53.00;;;;;;4996660;28;20105;-56
2022/05/01 04:43:36;;;;;;;2.70;1.80;;;20.40;52.90;;;;;;4996099;28;20473;-56
2022/05/01 04:46:02;;;;;;;2.97;1.92;;;20.40;53.00;;;;;;4996164;28;20437;-56
2022/05/01 04:48:27;;;;;;;2.15;1.70;;;20.40;52.90;;;;;;4995946;28;20046;-56
2022/05/01 04:50:53;;;;;;;2.33;1.55;;;20.40;52.90;;;;;;4996194;28;20045;-56
2022/05/01 04:53:20;;;;;;;2.47;1.60;;;20.40;52.90;;;;;;4996125;28;20073;-56
2022/05/01 04:55:47;;;;;;;2.30;1.55;;;20.50;53.00;;;;;;4995470;28;20057;-56
2022/05/01 04:58:14;;;;;;;2.50;1.63;;;20.50;53.00;;;;;;4996392;28;20053;-56
2022/05/01 05:00:40;;;;;;;3.00;1.70;;;20.50;52.90;;;;;;4996301;28;20109;-56
2022/05/01 05:03:06;;;;;;;3.03;1.70;;;20.50;52.90;;;;;;4995698;28;20042;-57
2022/05/01 05:05:31;;;;;;;2.63;1.60;;;20.50;52.90;;;;;;4995914;28;20050;-57
2022/05/01 05:09:53;;;;;;;3.00;1.90;;;20.50;53.00;;;;;;4995921;28;20058;-56
2022/05/01 05:10:47;;;;;;;2.35;1.65;;;20.50;52.90;;;;;;4995013;28;20050;-57
2022/05/01 05:13:21;;;;;;;2.53;1.55;;;20.40;52.90;;;;;;4995739;28;20505;-57
2022/05/01 05:15:47;;;;;;;2.40;1.80;;;20.40;52.80;;;;;;4995911;28;20129;-56
2022/05/01 05:18:13;;;;;;;2.53;1.75;;;20.50;52.90;;;;;;4995130;28;20046;-57
2022/05/01 05:20:38;;;;;;;2.42;1.70;;;20.50;52.90;;;;;;4994917;28;20197;-57
2022/05/01 05:23:04;;;;;;;2.35;1.70;;;20.40;52.90;;;;;;4995863;28;20089;-56
2022/05/01 05:25:29;;;;;;;2.97;1.90;;;20.50;52.90;;;;;;4995271;28;20042;-56
2022/05/01 05:27:55;;;;;;;2.50;1.80;;;20.50;52.90;;;;;;4995486;28;20042;-56
2022/05/01 05:30:21;;;;;;;3.05;1.67;;;20.50;52.90;;;;;;4995950;28;20049;-56
2022/05/01 05:32:46;;;;;;;2.78;1.65;;;20.50;52.90;;;;;;4994578;28;20050;-56
2022/05/01 05:35:12;;;;;;;2.45;1.70;;;20.50;52.90;;;;;;4995569;28;20050;-56
2022/05/01 05:37:37;;;;;;;2.45;1.80;;;20.50;52.90;;;;;;4995084;28;20049;-56
2022/05/01 05:40:04;;;;;;;2.65;1.67;;;20.50;52.80;;;;;;4995155;28;20050;-57
2022/05/01 05:42:29;;;;;;;2.75;1.85;;;20.50;52.90;;;;;;4995394;28;20053;-56
2022/05/01 05:44:55;;;;;;;3.15;1.80;;;20.50;52.90;;;;;;4994546;28;20046;-56
2022/05/01 05:47:20;;;;;;;3.25;1.90;;;20.50;52.90;;;;;;4995165;28;20039;-56
2022/05/01 05:49:47;;;;;;;2.35;1.70;;;20.50;52.90;;;;;;4995119;28;20064;-56
2022/05/01 05:52:12;;;;;;;5.28;1.98;;;20.60;53.10;;;;;;4994805;28;20050;-56
2022/05/01 05:54:39;;;;;;;3.95;1.90;;;20.60;52.80;;;;;;4995359;28;20129;-56
2022/05/01 05:57:04;;;;;;;3.42;1.90;;;20.60;52.80;;;;;;4995003;28;20394;-56
2022/05/01 05:59:30;;;;;;;2.92;1.88;;;20.60;52.70;;;;;;4994246;28;20050;-56
2022/05/01 06:01:55;;;;;;;3.55;1.70;;;20.60;52.70;;;;;;4994475;28;20046;-56
2022/05/01 06:04:21;;;;;;;3.78;1.70;;;20.60;52.70;;;;;;4995271;28;20046;-56
2022/05/01 06:06:46;;;;;;;2.85;1.83;;;20.70;52.90;;;;;;4994242;28;20133;-56
2022/05/01 06:09:12;;;;;;;2.15;1.60;;;20.70;52.90;;;;;;4995283;28;20089;-56
2022/05/01 06:11:38;;;;;;;2.92;1.90;;;20.70;52.80;;;;;;4994812;28;20038;-57
2022/05/01 06:14:03;;;;;;;3.92;1.95;;;20.70;52.90;;;;;;4994136;28;20113;-57
2022/05/01 06:16:31;;;;;;;5.07;2.00;;;20.70;52.90;;;;;;4994665;28;20490;-57
2022/05/01 06:18:57;;;;;;;2.60;1.90;;;20.70;52.90;;;;;;4983969;28;20132;-56
2022/05/01 06:21:23;;;;;;;2.85;1.90;;;20.70;53.00;;;;;;4984909;28;20039;-66
2022/05/01 06:23:48;;;;;;;2.50;1.75;;;20.70;53.10;;;;;;4990493;28;20136;-56
2022/05/01 06:26:14;;;;;;;4.68;1.60;;;20.80;53.20;;;;;;4994223;28;20038;-56
2022/05/01 06:28:40;;;;;;;2.60;1.55;;;20.80;53.20;;;;;;4993533;28;20046;-57
2022/05/01 06:31:05;;;;;;;4.38;1.80;;;20.80;53.30;;;;;;4993848;28;20054;-56
2022/05/01 06:33:31;;;;;;;3.33;1.67;;;20.80;53.20;;;;;;4981253;28;20057;-56
2022/05/01 06:35:56;;;;;;;3.33;2.00;;;20.80;53.20;;;;;;4982672;28;20053;-56
2022/05/01 06:38:22;;;;;;;3.72;1.98;;;20.80;53.30;;;;;;4983817;28;20051;-55
2022/05/01 06:40:48;;;;;;;3.20;2.00;;;20.80;53.30;;;;;;4988563;28;20046;-56
2022/05/01 06:43:15;;;;;;;4.95;1.85;;;20.80;53.50;;;;;;4994216;28;20041;-56
2022/05/01 06:45:41;;;;;;;3.35;1.73;;;20.90;53.60;;;;;;4994102;28;20070;-56
2022/05/01 06:48:10;;;;;;;2.97;2.22;;;20.90;53.80;;;;;;4993603;28;20043;-56
2022/05/01 06:50:36;;;;;;;2.88;1.88;;;20.90;53.80;;;;;;4994110;28;20177;-56
2022/05/01 06:53:01;;;;;;;2.60;1.80;;;20.90;53.80;;;;;;4993888;28;20453;-56
2022/05/01 06:55:27;;;;;;;5.55;2.00;;;20.90;53.80;;;;;;4993534;28;20434;-56
2022/05/01 06:57:53;;;;;;;3.70;1.77;;;20.90;53.90;;;;;;4993901;28;20054;-56
2022/05/01 07:00:19;;;;;;;2.58;1.95;;;20.90;54.00;;;;;;4993909;28;20054;-56
2022/05/01 07:02:48;;;;;;;3.20;1.80;;;21.00;54.00;;;;;;4993507;28;20054;-56
2022/05/01 07:05:14;;;;;;;4.57;2.00;;;21.00;54.10;;;;;;4993914;28;20081;-56
2022/05/01 07:07:39;;;;;;;4.18;2.00;;;21.00;54.10;;;;;;4993822;28;20039;-57
2022/05/01 07:10:06;;;;;;;3.53;2.05;;;21.00;54.10;;;;;;4993144;28;20089;-56
2022/05/01 07:12:31;;;;;;;3.15;1.85;;;21.10;54.30;;;;;;4993634;28;20397;-56
2022/05/01 07:14:57;;;;;;;5.05;2.15;;;21.00;54.10;;;;;;4993379;28;20133;-56
2022/05/01 07:17:22;;;;;;;2.00;1.42;;;21.10;54.30;;;;;;4993208;28;20042;-56
2022/05/01 07:19:49;;;;;;;4.28;1.80;;;21.10;54.20;;;;;;4993583;28;20042;-57
2022/05/01 07:22:15;;;;;;;4.03;1.80;;;21.10;54.30;;;;;;4993894;28;20047;-56
2022/05/01 07:24:41;;;;;;;2.90;1.83;;;21.10;54.40;;;;;;4992498;28;20421;-56
2022/05/01 07:27:06;;;;;;;3.75;1.85;;;21.10;54.30;;;;;;4993644;28;20511;-56
2022/05/01 07:29:32;;;;;;;3.08;2.08;;;21.10;54.40;;;;;;4993713;28;20512;-56
2022/05/01 07:31:57;;;;;;;3.78;1.77;;;21.20;54.50;;;;;;4990845;28;20425;-56
2022/05/01 07:34:23;;;;;;;3.03;1.60;;;21.20;54.50;;;;;;4992812;28;20065;-56
2022/05/01 07:36:48;;;;;;;3.22;1.85;;;21.20;54.30;;;;;;4992932;28;20096;-56
2022/05/01 07:39:14;;;;;;;3.90;1.95;;;21.20;54.20;;;;;;4992554;28;20104;-56
2022/05/01 07:41:40;;;;;;;3.30;2.15;;;21.20;54.20;;;;;;4992743;28;20070;-56
2022/05/01 07:44:06;;;;;;;2.67;1.70;;;21.20;54.20;;;;;;4992623;28;20046;-56
2022/05/01 07:46:34;;;;;;;4.43;2.00;;;21.20;54.10;;;;;;4993402;28;20109;-56
2022/05/01 07:48:59;;;;;;;3.35;1.85;;;21.30;54.10;;;;;;4992921;28;20514;-56
2022/05/01 07:51:25;;;;;;;2.42;1.73;;;21.20;54.00;;;;;;4992754;28;20090;-56
2022/05/01 07:53:50;;;;;;;6.07;1.73;;;21.30;54.00;;;;;;4992642;28;20050;-56
2022/05/01 07:56:16;;;;;;;3.38;1.70;;;21.30;53.90;;;;;;4992903;28;20518;-56
2022/05/01 07:58:41;;;;;;;2.92;1.70;;;21.30;53.90;;;;;;4992048;28;20053;-56
2022/05/01 08:01:07;;;;;;;3.88;1.70;;;21.30;54.60;;;;;;4993373;28;20038;-56
2022/05/01 08:06:17;;;;;;;2.25;1.65;;;21.30;53.80;;;;;;4992685;28;20050;-55
2022/05/01 08:08:42;;;;;;;2.65;1.75;;;21.30;53.80;;;;;;4990317;28;20046;-56
2022/05/01 08:11:08;;;;;;;4.32;1.98;;;21.30;53.70;;;;;;4983675;28;20161;-56
2022/05/01 08:13:34;;;;;;;3.17;1.88;;;21.40;53.70;;;;;;4981349;28;20057;-56
2022/05/01 08:15:59;;;;;;;3.97;1.70;;;21.40;53.70;;;;;;4982654;28;20046;-56
2022/05/01 08:21:09;;;;;;;2.63;1.90;;;21.40;53.80;;;;;;4972800;28;20051;-57
2022/05/01 08:23:36;;;;;;;4.20;1.58;;;21.50;53.90;;;;;;4973330;28;20043;-56
2022/05/01 08:26:06;;;;;;;3.40;1.70;;;21.50;54.00;;;;;;4973367;28;20069;-57
2022/05/01 08:28:35;;;;;;;4.40;2.15;;;21.50;54.10;;;;;;4972754;28;20043;-57
2022/05/01 08:31:01;;;;;;;3.17;1.92;;;21.50;54.10;;;;;;4973203;28;20049;-56
2022/05/01 08:33:27;;;;;;;2.28;1.60;;;21.50;54.10;;;;;;4972413;28;20418;-56
2022/05/01 08:35:53;;;;;;;4.70;2.08;;;21.60;54.00;;;;;;4973492;28;20125;-56
2022/05/01 08:38:18;;;;;;;4.20;1.85;;;21.50;53.80;;;;;;4973534;28;20058;-56
2022/05/01 08:40:46;;;;;;;3.35;1.88;;;21.60;53.80;;;;;;4972461;28;20054;-56
2022/05/01 08:43:15;;;;;;;3.33;1.92;;;21.60;53.70;;;;;;4973397;28;20055;-55
2022/05/01 08:45:45;;;;;;;3.47;2.00;;;21.60;53.60;;;;;;4973610;28;20109;-56
2022/05/01 08:48:12;;;;;;;6.40;2.15;;;21.60;53.60;;;;;;4972815;28;20054;-56
2022/05/01 08:50:38;;;;;;;3.22;1.98;;;21.60;53.50;;;;;;4973381;28;20043;-56
2022/05/01 08:53:03;;;;;;;3.33;1.75;;;21.60;53.50;;;;;;4988077;28;20057;-55
2022/05/01 08:55:30;;;;;;;3.10;1.88;;;21.60;53.50;;;;;;4988371;28;20090;-56
2022/05/01 08:57:56;;;;;;;2.65;1.75;;;21.60;53.50;;;;;;4976714;28;20043;-56
2022/05/01 09:00:22;;;;;;;3.03;1.80;;;21.70;53.60;;;;;;4992068;28;20387;-56
2022/05/01 09:02:47;;;;;;;3.85;2.08;;;21.60;53.40;;;;;;4976034;28;20085;-56
2022/05/01 09:05:13;;;;;;;5.15;2.10;;;21.70;53.50;;;;;;4991707;28;20093;-56
2022/05/01 09:07:39;;;;;;;3.95;1.92;;;21.70;53.50;;;;;;4991574;28;20043;-56
2022/05/01 09:10:07;;;;;;;4.78;2.28;;;21.60;54.00;;;;;;4978225;28;20483;-55
2022/05/01 09:12:51;;;;;;;4.43;2.27;;;21.70;53.30;;;;;;4989366;28;20524;-56
2022/05/01 09:15:40;;;;;;;7.00;2.28;;;21.70;53.20;;;;;;4996109;28;20136;-55
2022/05/01 09:18:14;;;;;;;3.63;2.10;;;21.60;52.80;;;;;;4996302;28;20068;-56
2022/05/01 09:21:02;;;;;;;4.25;2.20;;;21.60;52.80;;;;;;4995703;28;20105;-56
2022/05/01 09:23:44;;;;;;;3.70;1.98;;;21.60;52.50;;;;;;4995209;28;20055;-56
2022/05/01 09:26:11;;;;;;;6.47;2.58;;;21.70;52.50;;;;;;4995998;28;20046;-56
2022/05/01 09:28:37;;;;;;;4.68;2.10;;;21.70;52.40;;;;;;4995786;28;20042;-56
2022/05/01 09:31:03;;;;;;;4.18;2.42;;;21.70;52.10;;;;;;4994806;28;20045;-56
2022/05/01 09:33:29;;;;;;;3.72;2.35;;;21.60;52.00;;;;;;4995587;28;20054;-56
2022/05/01 09:35:55;;;;;;;3.13;2.03;;;21.70;51.90;;;;;;4995408;28;20513;-56
2022/05/01 09:38:25;;;;;;;3.70;1.92;;;21.60;51.70;;;;;;4993944;28;20042;-56
2022/05/01 09:40:54;;;;;;;2.85;2.10;;;21.70;51.50;;;;;;4994953;28;20088;-56
2022/05/01 09:43:43;;;;;;;;;;;21.60;51.40;;;;;;4994462;28;20042;-57
2022/05/01 09:46:15;;;;;;;3.60;2.30;;;21.60;51.30;;;;;;4980497;28;20020;-55
2022/05/01 09:48:42;;;;;;;6.47;2.10;;;21.60;51.40;;;;;;4983655;28;20038;-56
2022/05/01 09:51:17;;;;;;;5.47;2.33;;;21.60;51.10;;;;;;4975192;28;20038;-56
2022/05/01 09:53:43;;;;;;;6.40;2.22;;;21.60;50.90;;;;;;4975780;28;20043;-56
2022/05/01 09:56:09;;;;;;;4.13;2.35;;;21.70;51.10;;;;;;4975778;28;20047;-56
2022/05/01 09:58:38;;;;;;;2.67;1.98;;;21.70;51.10;;;;;;4974042;28;20043;-56
2022/05/01 10:01:22;;;;;;;5.03;2.28;;;21.70;51.20;;;;;;4975748;28;20045;-56
2022/05/01 10:03:48;;;;;;;3.90;2.10;;;21.70;51.40;;;;;;4975331;28;20050;-57
2022/05/01 10:06:14;;;;;;;3.78;2.00;;;21.70;51.50;;;;;;4973534;28;20070;-56
2022/05/01 10:08:41;;;;;;;4.80;2.28;;;21.70;51.60;;;;;;4975263;28;20043;-55
2022/05/01 10:11:07;;;;;;;4.15;2.00;;;21.70;51.70;;;;;;4975068;28;20398;-55
2022/05/01 10:13:33;;;;;;;4.32;2.10;;;21.70;51.70;;;;;;4974166;28;20097;-56
2022/05/01 10:16:04;;;;;;;2.88;1.83;;;21.70;51.80;;;;;;4974721;28;20116;-56
2022/05/01 10:18:29;;;;;;;4.78;2.03;;;21.70;51.90;;;;;;4975182;28;20054;-56
2022/05/01 10:20:55;;;;;;;3.25;1.92;;;21.70;52.00;;;;;;4974379;28;20038;-56
2022/05/01 10:23:21;;;;;;;5.35;2.40;;;21.70;52.00;;;;;;4975139;28;20404;-56
2022/05/01 10:25:59;;;;;;;3.45;1.98;;;21.70;52.00;;;;;;4973581;28;20051;-56
2022/05/01 10:29:00;;;;;;;3.67;1.90;;;21.70;52.00;;;;;;4957894;28;20034;-56
2022/05/01 10:34:25;;;;;;;5.80;2.13;;;21.80;52.10;;;;;;4973755;28;20071;-56
2022/05/01 10:37:11;;;;;;;3.00;1.80;;;21.80;52.10;;;;;;4974608;28;20467;-56
2022/05/01 10:39:38;;;;;;;4.22;2.13;;;21.70;52.20;;;;;;4973886;28;20285;-56
2022/05/01 10:42:04;;;;;;;3.13;2.20;;;21.80;52.30;;;;;;4972642;28;20039;-55
2022/05/01 10:44:40;;;;;;;2.97;1.73;;;21.80;52.40;;;;;;4973563;28;20399;-55
2022/05/01 10:47:06;;;;;;;2.75;1.73;;;21.80;52.40;;;;;;4974152;28;20039;-55
2022/05/01 10:49:34;;;;;;;2.63;1.85;;;21.80;53.20;;;;;;4974222;28;20053;-55
2022/05/01 10:52:21;;;;;;;3.70;2.20;;;21.80;52.50;;;;;;4974616;28;20070;-55
2022/05/01 10:54:54;;;;;;;2.83;1.95;;;21.80;52.50;;;;;;4973363;28;20057;-55
2022/05/01 10:57:20;;;;;;;3.38;2.00;;;21.80;52.60;;;;;;4974194;28;20049;-55
2022/05/01 10:59:47;;;;;;;4.55;1.80;;;21.80;52.50;;;;;;4973723;28;20042;-55
2022/05/01 11:02:47;;;;;;;3.65;2.00;;;21.80;52.60;;;;;;4973601;28;20046;-55
2022/05/01 11:05:52;;;;;;;3.35;1.67;;;21.80;52.60;;;;;;4974478;28;20047;-55
2022/05/01 11:08:24;;;;;;;4.63;1.70;;;21.80;52.60;;;;;;4971117;28;20055;-56
2022/05/01 11:10:50;;;;;;;2.92;1.33;;;21.90;52.70;;;;;;4973610;28;20061;-56
2022/05/01 11:13:16;;;;;;;4.70;1.80;;;21.80;53.30;;;;;;4972925;28;20059;-56
2022/05/01 11:15:47;;;;;;;2.85;1.73;;;21.80;52.50;;;;;;4974848;28;20105;-56
2022/05/01 11:18:13;;;;;;;3.38;2.28;;;21.80;52.50;;;;;;4993351;28;20121;-56
2022/05/01 11:20:38;;;;;;;3.15;1.80;;;21.90;52.50;;;;;;4993631;28;20070;-56
2022/05/01 11:23:26;;;;;;;3.55;2.00;;;21.90;52.50;;;;;;4993025;28;20169;-55
2022/05/01 11:25:51;;;;;;;2.42;1.83;;;21.90;52.60;;;;;;4993375;28;20042;-55
2022/05/01 11:28:49;;;;;;;2.83;2.00;;;21.90;52.60;;;;;;4976102;28;20057;-56
2022/05/01 11:31:36;;;;;;;4.78;2.00;;;21.90;52.70;;;;;;4992956;28;20073;-56
2022/05/01 11:34:18;;;;;;;2.70;1.75;;;21.90;52.70;;;;;;4990947;28;20118;-56
2022/05/01 11:37:09;;;;;;;3.40;2.03;;;21.90;52.70;;;;;;4992709;28;20057;-56
2022/05/01 11:39:46;;;;;;;3.35;1.90;;;21.90;52.60;;;;;;4989681;28;20062;-55
2022/05/01 11:42:24;;;;;;;4.28;1.80;;;21.90;52.60;;;;;;4984113;28;20418;-55
2022/05/01 11:44:54;;;;;;;3.25;1.80;;;21.90;52.40;;;;;;4982942;28;20050;-58
2022/05/01 11:47:21;;;;;;;3.55;2.17;;;21.90;52.40;;;;;;4986843;28;20165;-54
2022/05/01 11:49:46;;;;;;;5.25;2.15;;;21.90;52.30;;;;;;4986352;28;20089;-56
2022/05/01 11:52:16;;;;;;;3.42;2.10;;;21.90;52.30;;;;;;4981363;28;20047;-55
2022/05/01 11:54:55;;;;;;;4.40;2.38;;;21.90;52.30;;;;;;4981610;28;20082;-56
2022/05/01 12:03:02;;;;;;;4.63;2.22;;;21.80;52.30;;;;;;4992969;28;20050;-56
2022/05/01 12:05:29;;;;;;;3.70;1.83;;;21.80;51.90;;;;;;4992557;28;20085;-56
2022/05/01 12:07:55;;;;;;;4.35;1.98;;;21.80;51.70;;;;;;4993033;28;20109;-56
2022/05/01 12:10:21;;;;;;;3.55;1.80;;;21.80;51.60;;;;;;4993173;28;20042;-55
2022/05/01 12:12:46;;;;;;;3.17;1.80;;;21.80;51.60;;;;;;4992007;28;20057;-57
2022/05/01 12:15:12;;;;;;;7.28;1.70;;;21.80;51.60;;;;;;4992887;28;20077;-55
2022/05/01 12:17:40;;;;;;;3.92;2.30;;;21.80;51.60;;;;;;4993322;28;20486;-55
2022/05/01 12:20:08;;;;;;;2.40;1.77;;;21.80;51.60;;;;;;4992557;28;20046;-55
2022/05/01 12:22:39;;;;;;;4.40;1.70;;;21.80;51.60;;;;;;4993144;28;20034;-55
2022/05/01 12:25:10;;;;;;;7.20;1.80;;;21.80;51.60;;;;;;4993069;28;20528;-56
2022/05/01 12:27:40;;;;;;;2.97;1.50;;;21.80;51.70;;;;;;4992324;28;20057;-56
2022/05/01 12:30:06;;;;;;;3.75;1.67;;;21.80;51.60;;;;;;4992307;28;20517;-56
2022/05/01 12:32:32;;;;;;;5.70;1.80;;;21.80;51.60;;;;;;4996235;28;20085;-56
2022/05/01 12:35:00;;;;;;;4.38;1.70;;;21.80;51.50;;;;;;4996393;28;20062;-56
2022/05/01 12:37:34;;;;;;;2.45;1.50;;;21.80;51.60;;;;;;4997067;28;20061;-56
2022/05/01 12:40:10;;;;;;;2.92;1.70;;;21.80;51.50;;;;;;4995449;28;20512;-56
2022/05/01 12:45:46;;;;;;;3.97;2.10;;;21.80;51.40;;;;;;4996508;28;20463;-56
2022/05/01 12:48:12;;;;;;;;;;;21.80;51.50;;;;;;4996140;28;20481;-56
2022/05/01 12:50:38;;;;;;;2.15;1.45;;;21.70;51.40;;;;;;4996816;28;20016;-56
2022/05/01 12:53:22;;;;;;;2.85;1.98;;;21.70;51.50;;;;;;4995852;28;20046;-56
2022/05/01 12:55:48;;;;;;;4.57;1.40;;;21.70;51.40;;;;;;4995363;28;20049;-56
2022/05/01 12:58:13;;;;;;;4.35;1.80;;;21.70;51.40;;;;;;4996238;28;20085;-56
2022/05/01 13:00:46;;;;;;;4.97;1.63;;;21.70;51.40;;;;;;4995479;28;20522;-56
2022/05/01 13:03:15;;;;;;;2.45;1.58;;;21.70;51.40;;;;;;4996367;28;20046;-56
2022/05/01 13:05:42;;;;;;;4.47;1.73;;;21.70;52.20;;;;;;4996244;28;20038;-56
2022/05/01 13:08:17;;;;;;;2.38;1.67;;;21.70;51.40;;;;;;4995253;28;20104;-56
2022/05/01 13:10:43;;;;;;;3.50;1.80;;;21.70;51.40;;;;;;4995648;28;20050;-56
2022/05/01 13:13:08;;;;;;;3.45;1.85;;;21.70;51.40;;;;;;4994714;28;20134;-56
2022/05/01 13:15:37;;;;;;;3.40;1.75;;;21.70;51.30;;;;;;4994175;28;20042;-56
2022/05/01 13:18:03;;;;;;;2.60;1.55;;;21.70;51.00;;;;;;4984712;28;20046;-55
2022/05/01 13:20:28;;;;;;;4.22;2.10;;;21.70;51.00;;;;;;4986601;28;20038;-55
2022/05/01 13:22:54;;;;;;;5.28;2.00;;;21.60;51.00;;;;;;4983044;28;20416;-55
2022/05/01 13:25:19;;;;;;;2.45;1.60;;;21.60;51.00;;;;;;4995194;28;20054;-56